Time;durP1;ratioP1;P1;durP2;ratioP2;P2;SDS_P1;SDS_P2;PMS_P1;PMS_P2;Temp;Humidity;BMP_temperature;BMP_pressure;BME280_temperature;BME280_humidity;BME280_pressure;Samples;Min_cycle;Max_cycle;Signal;HPM_P1;HPM_P2
2023/01/20 00:00:10;;;;;;;24.35;10.70;;;1.10;99.90;;;;;;5016286;28;20030;-92
2023/01/20 00:02:36;;;;;;;19.90;11.80;;;1.10;99.90;;;;;;5033377;28;20022;-93
2023/01/20 00:05:01;;;;;;;27.40;13.45;;;1.10;99.90;;;;;;5011437;28;20080;-92
2023/01/20 00:07:30;;;;;;;26.77;13.68;;;1.10;99.90;;;;;;5005389;28;20060;-91
2023/01/20 00:09:56;;;;;;;22.48;13.50;;;1.10;99.90;;;;;;5006603;28;20029;-92
2023/01/20 00:12:21;;;;;;;26.02;13.80;;;1.10;99.90;;;;;;5008877;28;20034;-92
2023/01/20 00:14:50;;;;;;;25.13;15.57;;;1.20;99.90;;;;;;4996478;28;20061;-92
2023/01/20 00:17:25;;;;;;;27.02;15.60;;;1.20;99.90;;;;;;5003846;28;20033;-93
2023/01/20 00:19:54;;;;;;;26.58;13.50;;;1.20;99.90;;;;;;5015480;28;20033;-93
2023/01/20 00:22:21;;;;;;;26.10;14.07;;;1.20;99.90;;;;;;5016193;28;20464;-93
2023/01/20 00:24:49;;;;;;;30.70;16.75;;;1.30;99.90;;;;;;5033948;28;20413;-93
2023/01/20 00:27:16;;;;;;;33.35;19.48;;;1.30;99.90;;;;;;5028772;28;20486;-93
2023/01/20 00:29:45;;;;;;;37.20;20.63;;;1.30;99.90;;;;;;5015838;28;20037;-92
2023/01/20 00:32:17;;;;;;;38.78;20.63;;;1.30;99.90;;;;;;5027481;28;20113;-93
2023/01/20 00:34:45;;;;;;;48.50;25.27;;;1.30;99.90;;;;;;5023745;28;20070;-91
2023/01/20 00:37:16;;;;;;;46.50;24.63;;;1.30;99.90;;;;;;5015628;28;20068;-92
2023/01/20 00:39:42;;;;;;;45.13;25.13;;;1.30;99.90;;;;;;5018521;28;20033;-92
2023/01/20 00:42:08;;;;;;;45.25;24.40;;;1.30;99.90;;;;;;5020055;28;20061;-92
2023/01/20 00:44:36;;;;;;;45.25;25.05;;;1.30;99.90;;;;;;5019583;28;20033;-92
2023/01/20 00:47:02;;;;;;;43.42;23.63;;;1.30;99.90;;;;;;5020208;28;20041;-92
2023/01/20 00:49:28;;;;;;;43.08;23.00;;;1.30;99.90;;;;;;5019435;28;20037;-92
2023/01/20 00:51:53;;;;;;;42.75;24.23;;;1.30;99.90;;;;;;5019109;28;20397;-94
2023/01/20 00:54:19;;;;;;;43.75;24.88;;;1.40;99.90;;;;;;5019489;28;20417;-93
2023/01/20 00:56:47;;;;;;;45.38;24.90;;;1.40;99.90;;;;;;5019591;28;20482;-92
2023/01/20 00:59:13;;;;;;;45.22;24.15;;;1.40;99.90;;;;;;5019703;28;20080;-93
2023/01/20 01:01:39;;;;;;;41.10;21.35;;;1.40;99.90;;;;;;5037092;28;20038;-94
2023/01/20 01:04:05;;;;;;;44.47;24.75;;;1.40;99.90;;;;;;5014555;28;20482;-93
2023/01/20 01:06:33;;;;;;;46.88;24.67;;;1.40;99.90;;;;;;5008336;28;20116;-92
2023/01/20 01:09:00;;;;;;;45.90;25.38;;;1.40;99.90;;;;;;5019658;28;20053;-92
2023/01/20 01:11:26;;;;;;;52.78;26.45;;;1.40;99.90;;;;;;5005706;28;20454;-92
2023/01/20 01:13:56;;;;;;;50.58;27.38;;;1.40;99.90;;;;;;5015143;28;20128;-93
2023/01/20 01:16:22;;;;;;;50.70;26.98;;;1.40;99.90;;;;;;5026828;28;20034;-93
2023/01/20 01:18:48;;;;;;;53.70;28.08;;;1.40;99.90;;;;;;5018912;28;20038;-92
2023/01/20 01:21:16;;;;;;;42.33;23.23;;;1.40;99.90;;;;;;5019008;28;20033;-91
2023/01/20 01:23:43;;;;;;;43.10;25.15;;;1.40;99.90;;;;;;5020580;28;20042;-93
2023/01/20 01:26:09;;;;;;;44.80;24.80;;;1.40;99.90;;;;;;5015459;28;20050;-92
2023/01/20 01:28:35;;;;;;;41.63;23.55;;;1.40;99.90;;;;;;5007887;28;20038;-93
2023/01/20 01:31:02;;;;;;;41.47;23.23;;;1.40;99.90;;;;;;4980497;28;20129;-91
2023/01/20 01:33:29;;;;;;;42.63;22.83;;;1.40;99.90;;;;;;4997272;28;20491;-92
2023/01/20 01:35:59;;;;;;;40.03;22.70;;;1.50;99.90;;;;;;4995948;28;20046;-94
2023/01/20 01:38:26;;;;;;;46.60;26.15;;;1.50;99.90;;;;;;4987300;28;20022;-93
2023/01/20 01:40:53;;;;;;;42.47;23.85;;;1.50;99.90;;;;;;5016527;28;20038;-93
2023/01/20 01:43:25;;;;;;;36.63;21.40;;;1.50;99.90;;;;;;5017261;28;20037;-92
2023/01/20 01:45:50;;;;;;;38.03;20.92;;;1.50;99.90;;;;;;5016084;28;20489;-93
2023/01/20 01:48:37;;;;;;;41.60;22.92;;;1.50;99.90;;;;;;5015366;28;20045;-92
2023/01/20 01:51:12;;;;;;;39.53;22.00;;;1.50;99.90;;;;;;5022819;28;20482;-93
2023/01/20 01:53:46;;;;;;;37.78;21.42;;;1.50;99.90;;;;;;5015610;28;20041;-92
2023/01/20 01:56:14;;;;;;;33.80;19.58;;;1.50;99.90;;;;;;4999470;28;20038;-92
2023/01/20 01:58:45;;;;;;;30.80;17.20;;;1.50;99.90;;;;;;5015756;28;20133;-93
2023/01/20 02:01:11;;;;;;;32.95;18.80;;;1.50;99.90;;;;;;5015576;28;20061;-91
2023/01/20 02:03:52;;;;;;;33.35;18.17;;;1.50;99.90;;;;;;5015566;28;20088;-90
2023/01/20 02:06:19;;;;;;;39.33;21.92;;;1.50;99.90;;;;;;5015438;28;20044;-91
2023/01/20 02:08:45;;;;;;;36.25;19.17;;;1.50;99.90;;;;;;5015864;28;20437;-91
2023/01/20 02:11:11;;;;;;;37.28;21.40;;;1.50;99.90;;;;;;5015966;28;20100;-92
2023/01/20 02:13:37;;;;;;;32.78;18.98;;;1.50;99.90;;;;;;4998960;28;20037;-92
2023/01/20 02:16:19;;;;;;;34.03;18.10;;;1.50;99.90;;;;;;5015374;28;20046;-92
2023/01/20 02:19:07;;;;;;;30.52;16.73;;;1.50;99.90;;;;;;5015491;28;20036;-93
2023/01/20 02:21:56;;;;;;;32.90;18.92;;;1.50;99.90;;;;;;5015415;28;20116;-94
2023/01/20 02:24:47;;;;;;;33.42;18.17;;;1.50;99.90;;;;;;4954073;28;20069;-92
2023/01/20 02:27:27;;;;;;;27.58;15.80;;;1.50;99.90;;;;;;5016760;28;20469;-92
2023/01/20 02:30:07;;;;;;;30.15;16.25;;;1.50;99.90;;;;;;4999275;28;20044;-90
2023/01/20 02:33:02;;;;;;;34.03;18.05;;;1.50;99.90;;;;;;5015524;28;20045;-91
2023/01/20 02:35:52;;;;;;;32.08;16.67;;;1.50;99.90;;;;;;5014481;28;20077;-92
2023/01/20 02:38:17;;;;;;;29.83;16.77;;;1.40;99.90;;;;;;5014399;28;20068;-92
2023/01/20 02:41:17;;;;;;;30.10;17.45;;;1.50;99.90;;;;;;5015067;28;20030;-92
2023/01/20 02:43:54;;;;;;;37.58;19.42;;;1.40;99.90;;;;;;4995418;28;20093;-90
2023/01/20 02:46:30;;;;;;;34.47;18.75;;;1.40;99.90;;;;;;4994893;28;20076;-91
2023/01/20 02:49:17;;;;;;;35.30;17.63;;;1.40;99.90;;;;;;4987783;28;20030;-91
2023/01/20 02:51:58;;;;;;;37.00;19.55;;;1.40;99.90;;;;;;4994997;28;20454;-90
2023/01/20 02:54:28;;;;;;;33.28;18.58;;;1.50;99.90;;;;;;4995853;28;20030;-91
2023/01/20 02:56:57;;;;;;;33.60;18.38;;;1.40;99.90;;;;;;4994871;28;20034;-92
2023/01/20 02:59:30;;;;;;;35.90;19.77;;;1.40;99.90;;;;;;4994790;28;20042;-91
2023/01/20 03:02:03;;;;;;;40.00;19.45;;;1.50;99.90;;;;;;4994697;28;20030;-92
2023/01/20 03:04:37;;;;;;;42.23;22.93;;;1.40;99.90;;;;;;4978565;28;20541;-92
2023/01/20 03:07:04;;;;;;;42.72;22.42;;;1.40;99.90;;;;;;4995503;28;20732;-91
2023/01/20 03:09:36;;;;;;;39.25;20.60;;;1.40;99.90;;;;;;4978450;28;20045;-91
2023/01/20 03:12:11;;;;;;;41.38;21.13;;;1.40;99.90;;;;;;4994270;28;20041;-91
2023/01/20 03:14:38;;;;;;;43.25;23.45;;;1.40;99.90;;;;;;4994215;28;20042;-91
2023/01/20 03:17:04;;;;;;;40.65;22.00;;;1.50;99.90;;;;;;4978108;28;20038;-92
2023/01/20 03:19:30;;;;;;;39.08;20.42;;;1.40;99.90;;;;;;4994473;28;20037;-91
2023/01/20 03:21:56;;;;;;;39.55;21.88;;;1.40;99.90;;;;;;4978327;28;20121;-91
2023/01/20 03:24:24;;;;;;;41.75;23.25;;;1.40;99.90;;;;;;4993975;28;20046;-91
2023/01/20 03:26:51;;;;;;;45.97;23.90;;;1.40;99.90;;;;;;5009360;28;20053;-91
2023/01/20 03:29:17;;;;;;;45.25;24.27;;;1.40;99.90;;;;;;5029804;28;20040;-91
2023/01/20 03:32:06;;;;;;;41.80;22.45;;;1.40;99.90;;;;;;5030279;28;20121;-91
2023/01/20 03:34:34;;;;;;;47.03;24.55;;;1.40;99.90;;;;;;5013829;28;20038;-90
2023/01/20 03:37:02;;;;;;;41.90;21.60;;;1.40;99.90;;;;;;5030040;28;20482;-91
2023/01/20 03:39:31;;;;;;;44.55;22.17;;;1.40;99.90;;;;;;5030719;28;20042;-91
2023/01/20 03:42:12;;;;;;;47.72;23.17;;;1.40;99.90;;;;;;5013682;28;20084;-91
2023/01/20 03:45:04;;;;;;;48.70;24.52;;;1.40;99.90;;;;;;5030026;28;20040;-90
2023/01/20 03:47:51;;;;;;;54.00;26.30;;;1.40;99.90;;;;;;5030484;28;20065;-91
2023/01/20 03:50:22;;;;;;;48.38;24.38;;;1.40;99.90;;;;;;5030124;28;20053;-91
2023/01/20 03:52:52;;;;;;;47.17;24.98;;;1.40;99.90;;;;;;5014530;28;20040;-91
2023/01/20 03:55:42;;;;;;;45.22;22.83;;;1.40;99.90;;;;;;5029991;28;20030;-91
2023/01/20 03:58:26;;;;;;;44.20;23.38;;;1.40;99.90;;;;;;5014647;28;20042;-91
2023/01/20 04:00:53;;;;;;;50.53;23.52;;;1.40;99.90;;;;;;5029932;28;20045;-90
2023/01/20 04:03:24;;;;;;;47.95;24.23;;;1.40;99.90;;;;;;5013013;28;20504;-91
2023/01/20 04:05:50;;;;;;;49.38;23.02;;;1.40;99.90;;;;;;5029756;28;20026;-91
2023/01/20 04:08:19;;;;;;;51.80;22.90;;;1.40;99.90;;;;;;5030006;28;20034;-91
2023/01/20 04:10:49;;;;;;;58.95;25.23;;;1.40;99.90;;;;;;5029602;28;20030;-91
2023/01/20 04:13:17;;;;;;;64.43;29.45;;;1.40;99.90;;;;;;5029615;28;20109;-91
2023/01/20 04:15:45;;;;;;;68.10;29.95;;;1.30;99.90;;;;;;5031832;28;20155;-91
2023/01/20 04:18:17;;;;;;;56.58;27.00;;;1.30;99.90;;;;;;5033575;28;20470;-91
2023/01/20 04:20:48;;;;;;;56.90;26.42;;;1.30;99.90;;;;;;5033828;28;20124;-92
2023/01/20 04:23:22;;;;;;;56.42;27.30;;;1.30;99.90;;;;;;5033627;28;20149;-91
2023/01/20 04:25:48;;;;;;;60.67;27.77;;;1.30;99.90;;;;;;5017223;28;20129;-92
2023/01/20 04:28:15;;;;;;;66.50;30.00;;;1.30;99.90;;;;;;5018297;28;20038;-91
2023/01/20 04:30:42;;;;;;;63.17;28.58;;;1.30;99.90;;;;;;5033934;28;20129;-91
2023/01/20 04:33:08;;;;;;;61.55;26.58;;;1.30;99.90;;;;;;5032987;28;20080;-91
2023/01/20 04:35:34;;;;;;;66.40;29.90;;;1.30;99.90;;;;;;5032707;28;20042;-91
2023/01/20 04:37:59;;;;;;;59.78;27.48;;;1.30;99.90;;;;;;5017131;28;20038;-92
2023/01/20 04:40:25;;;;;;;67.82;30.27;;;1.30;99.90;;;;;;5033259;28;20038;-91
2023/01/20 04:42:52;;;;;;;66.78;27.60;;;1.30;99.90;;;;;;5018079;28;20030;-92
2023/01/20 04:45:18;;;;;;;66.10;29.13;;;1.30;99.90;;;;;;5033146;28;20034;-90
2023/01/20 04:47:44;;;;;;;67.75;28.08;;;1.30;99.90;;;;;;5016836;28;20037;-90
2023/01/20 04:50:11;;;;;;;61.58;28.02;;;1.30;99.90;;;;;;5017826;28;20145;-91
2023/01/20 04:52:36;;;;;;;62.63;28.40;;;1.30;99.90;;;;;;5015788;28;20030;-91
2023/01/20 04:55:03;;;;;;;57.65;25.95;;;1.30;99.90;;;;;;5016236;28;20520;-90
2023/01/20 04:57:31;;;;;;;59.40;25.63;;;1.30;99.90;;;;;;5035992;28;20088;-91
2023/01/20 04:59:57;;;;;;;53.75;23.42;;;1.30;99.90;;;;;;5036048;28;20112;-91
2023/01/20 05:02:23;;;;;;;51.08;24.27;;;1.30;99.90;;;;;;5037174;28;20063;-91
2023/01/20 05:04:49;;;;;;;50.88;23.63;;;1.30;99.90;;;;;;5019935;28;20041;-91
2023/01/20 05:07:15;;;;;;;51.08;22.00;;;1.30;99.90;;;;;;5035825;28;20038;-91
2023/01/20 05:09:42;;;;;;;52.60;22.63;;;1.30;99.90;;;;;;5019516;28;20116;-90
2023/01/20 05:12:07;;;;;;;51.92;22.13;;;1.30;99.90;;;;;;5035154;28;20041;-90
2023/01/20 05:14:33;;;;;;;47.65;21.17;;;1.30;99.90;;;;;;5018350;28;20044;-90
2023/01/20 05:16:59;;;;;;;46.35;20.65;;;1.30;99.90;;;;;;5035517;28;20037;-92
2023/01/20 05:19:25;;;;;;;56.10;23.80;;;1.40;99.90;;;;;;5035760;28;20075;-92
2023/01/20 05:21:50;;;;;;;52.40;24.35;;;1.30;99.90;;;;;;5035933;28;20117;-92
2023/01/20 05:24:16;;;;;;;52.40;23.65;;;1.30;99.90;;;;;;5037397;28;20112;-91
2023/01/20 05:26:42;;;;;;;63.33;28.20;;;1.30;99.90;;;;;;5037437;28;20049;-91
2023/01/20 05:29:08;;;;;;;58.50;25.63;;;1.30;99.90;;;;;;5039308;28;20401;-91
2023/01/20 05:31:34;;;;;;;56.00;25.10;;;1.30;99.90;;;;;;5038961;28;20408;-92
2023/01/20 05:34:00;;;;;;;54.13;22.38;;;1.30;99.90;;;;;;5056986;28;20043;-91
2023/01/20 05:36:27;;;;;;;49.13;22.33;;;1.30;99.90;;;;;;5038953;28;20132;-91
2023/01/20 05:38:55;;;;;;;45.80;22.25;;;1.30;99.90;;;;;;5022954;28;20481;-91
2023/01/20 05:41:20;;;;;;;52.55;22.83;;;1.30;99.90;;;;;;5038676;28;20033;-89
2023/01/20 05:43:47;;;;;;;50.10;21.80;;;1.30;99.90;;;;;;5038958;28;20037;-91
2023/01/20 05:46:14;;;;;;;44.95;22.10;;;1.20;99.90;;;;;;5022557;28;20040;-91
2023/01/20 05:48:41;;;;;;;51.13;22.45;;;1.20;99.90;;;;;;5064862;28;20031;-89
2023/01/20 05:51:07;;;;;;;49.47;22.23;;;1.20;99.90;;;;;;5039018;28;20056;-91
2023/01/20 05:53:32;;;;;;;46.03;21.20;;;1.20;99.90;;;;;;5038474;28;20041;-90
2023/01/20 05:56:03;;;;;;;43.17;19.60;;;1.20;99.90;;;;;;5038324;28;20036;-90
2023/01/20 05:58:32;;;;;;;40.70;20.30;;;1.20;99.90;;;;;;5038670;28;20044;-90
2023/01/20 06:01:10;;;;;;;51.72;22.58;;;1.20;99.90;;;;;;5038808;28;20029;-91
2023/01/20 06:03:39;;;;;;;47.33;20.63;;;1.20;99.90;;;;;;5054874;28;20080;-91
2023/01/20 06:06:07;;;;;;;48.90;21.92;;;1.20;99.90;;;;;;5038118;28;20338;-90
2023/01/20 06:08:34;;;;;;;50.65;24.80;;;1.30;99.90;;;;;;5054984;28;20502;-92
2023/01/20 06:11:00;;;;;;;56.88;24.67;;;1.20;99.90;;;;;;5055239;28;20029;-91
2023/01/20 06:13:28;;;;;;;44.95;22.02;;;1.20;99.90;;;;;;5055099;28;20044;-91
2023/01/20 06:15:58;;;;;;;53.83;22.65;;;1.20;99.90;;;;;;5038178;28;20083;-90
2023/01/20 06:18:27;;;;;;;49.13;21.98;;;1.20;99.90;;;;;;5038917;28;20037;-92
2023/01/20 06:20:57;;;;;;;45.35;20.80;;;1.20;99.90;;;;;;5055903;28;20372;-91
2023/01/20 06:23:23;;;;;;;52.85;24.70;;;1.20;99.90;;;;;;5038010;28;20043;-91
2023/01/20 06:26:03;;;;;;;57.17;25.02;;;1.20;99.90;;;;;;5037440;28;20045;-90
2023/01/20 06:28:31;;;;;;;51.65;23.17;;;1.20;99.90;;;;;;5038170;28;20552;-90
2023/01/20 06:31:01;;;;;;;54.65;24.70;;;1.20;99.90;;;;;;5054625;28;20496;-92
2023/01/20 06:33:27;;;;;;;60.28;26.77;;;1.20;99.90;;;;;;5055252;28;20466;-90
2023/01/20 06:35:54;;;;;;;54.42;24.77;;;1.20;99.90;;;;;;5055675;28;20045;-90
2023/01/20 06:38:20;;;;;;;53.88;24.08;;;1.10;99.90;;;;;;5037705;28;20473;-91
2023/01/20 06:40:49;;;;;;;51.65;22.63;;;1.20;99.90;;;;;;5054474;28;20033;-90
2023/01/20 06:43:21;;;;;;;51.88;23.80;;;1.10;99.90;;;;;;5038017;28;20040;-90
2023/01/20 06:45:50;;;;;;;49.65;22.95;;;1.20;99.90;;;;;;5055517;28;20408;-91
2023/01/20 06:48:19;;;;;;;46.97;21.25;;;1.20;99.90;;;;;;5037795;28;20531;-90
2023/01/20 06:50:45;;;;;;;53.53;24.05;;;1.20;99.90;;;;;;5036843;28;20388;-91
2023/01/20 06:53:11;;;;;;;53.13;23.88;;;1.20;99.90;;;;;;5054024;28;20071;-91
2023/01/20 06:55:39;;;;;;;54.75;24.52;;;1.30;99.90;;;;;;5036469;28;20033;-90
2023/01/20 06:58:07;;;;;;;52.72;22.98;;;1.30;99.90;;;;;;5054113;28;20044;-90
2023/01/20 07:00:33;;;;;;;52.10;23.50;;;1.20;99.90;;;;;;5054924;28;20091;-90
2023/01/20 07:02:59;;;;;;;59.03;27.27;;;1.20;99.90;;;;;;5036426;28;20048;-89
2023/01/20 07:05:25;;;;;;;53.03;24.33;;;1.30;99.90;;;;;;5054778;28;20083;-90
2023/01/20 07:07:50;;;;;;;61.13;26.58;;;1.30;99.90;;;;;;5037024;28;20492;-89
2023/01/20 07:10:16;;;;;;;55.83;25.08;;;1.20;99.90;;;;;;5036106;28;20032;-89
2023/01/20 07:12:42;;;;;;;70.38;30.40;;;1.20;99.90;;;;;;5036850;28;20032;-90
2023/01/20 07:15:08;;;;;;;64.45;29.13;;;1.20;99.90;;;;;;5054212;28;20045;-90
2023/01/20 07:17:42;;;;;;;72.95;31.08;;;1.20;99.90;;;;;;5053102;28;20538;-89
2023/01/20 07:20:12;;;;;;;68.43;30.70;;;1.20;99.90;;;;;;5054290;28;20405;-89
2023/01/20 07:22:38;;;;;;;65.25;28.60;;;1.20;99.90;;;;;;5052278;28;20033;-89
2023/01/20 07:25:04;;;;;;;60.92;29.15;;;1.20;99.90;;;;;;5036320;28;20465;-89
2023/01/20 07:27:30;;;;;;;67.60;30.05;;;1.20;99.90;;;;;;5035683;28;20129;-89
2023/01/20 07:29:58;;;;;;;66.75;29.90;;;1.20;99.90;;;;;;5033442;28;20133;-90
2023/01/20 07:32:35;;;;;;;56.65;26.17;;;1.20;99.90;;;;;;5016421;28;20551;-89
2023/01/20 07:35:03;;;;;;;62.80;28.15;;;1.20;99.90;;;;;;5033156;28;20068;-89
2023/01/20 07:37:29;;;;;;;61.03;28.20;;;1.20;99.90;;;;;;5033677;28;20393;-89
2023/01/20 07:39:55;;;;;;;58.55;27.77;;;1.20;99.90;;;;;;5033099;28;20045;-90
2023/01/20 07:42:23;;;;;;;63.55;29.92;;;1.20;99.90;;;;;;5016639;28;20470;-89
2023/01/20 07:44:49;;;;;;;67.53;28.48;;;1.20;99.90;;;;;;5016905;28;20072;-90
2023/01/20 07:47:33;;;;;;;65.75;30.85;;;1.30;99.90;;;;;;5000685;28;20124;-90
2023/01/20 07:49:58;;;;;;;70.07;30.92;;;1.30;99.90;;;;;;5015400;28;20040;-89
2023/01/20 07:52:24;;;;;;;63.03;29.00;;;1.30;99.90;;;;;;5032748;28;20041;-89
2023/01/20 07:54:50;;;;;;;68.13;30.50;;;1.30;99.90;;;;;;5015810;28;20118;-90
2023/01/20 07:57:39;;;;;;;67.93;29.73;;;1.30;99.90;;;;;;5032426;28;20045;-89
2023/01/20 08:00:06;;;;;;;70.35;30.92;;;1.30;99.90;;;;;;5033980;28;20496;-89
2023/01/20 08:02:37;;;;;;;57.35;26.85;;;1.30;99.90;;;;;;5015861;28;20051;-89
2023/01/20 08:05:03;;;;;;;64.88;27.77;;;1.30;99.90;;;;;;5033880;28;20120;-90
2023/01/20 08:07:32;;;;;;;66.57;30.50;;;1.30;99.90;;;;;;5033683;28;20038;-90
2023/01/20 08:09:58;;;;;;;72.28;32.13;;;1.30;99.90;;;;;;5032678;28;20030;-90
2023/01/20 08:12:27;;;;;;;70.32;32.03;;;1.30;99.90;;;;;;5015953;28;20029;-89
2023/01/20 08:14:52;;;;;;;68.70;29.63;;;1.40;99.90;;;;;;5033617;28;20568;-89
2023/01/20 08:17:22;;;;;;;69.95;32.90;;;1.40;99.90;;;;;;5034172;28;20116;-91
2023/01/20 08:19:54;;;;;;;64.90;29.42;;;1.40;99.90;;;;;;5015974;28;20029;-89
2023/01/20 08:22:29;;;;;;;66.20;28.50;;;1.30;99.90;;;;;;5033904;28;20037;-88
2023/01/20 08:24:55;;;;;;;64.65;28.98;;;1.30;99.90;;;;;;5032662;28;20029;-89
2023/01/20 08:27:21;;;;;;;65.47;29.92;;;1.40;99.90;;;;;;5048500;28;20052;-89
2023/01/20 08:30:04;;;;;;;65.47;29.15;;;1.40;99.90;;;;;;5053583;28;20033;-90
2023/01/20 08:32:30;;;;;;;69.22;31.42;;;1.40;99.90;;;;;;5053526;28;20079;-90
2023/01/20 08:34:56;;;;;;;67.18;31.23;;;1.40;99.90;;;;;;5052642;28;20073;-89
2023/01/20 08:37:22;;;;;;;61.38;27.45;;;1.40;99.90;;;;;;5035585;28;20043;-89
2023/01/20 08:39:48;;;;;;;70.82;31.70;;;1.40;99.90;;;;;;5035327;28;20033;-90
2023/01/20 08:42:14;;;;;;;74.60;33.90;;;1.40;99.90;;;;;;5052663;28;20029;-89
2023/01/20 08:44:40;;;;;;;74.55;34.00;;;1.40;99.90;;;;;;5036056;28;20102;-91
2023/01/20 08:47:06;;;;;;;70.55;30.98;;;1.40;99.90;;;;;;5052104;28;20029;-90
2023/01/20 08:49:32;;;;;;;69.15;32.38;;;1.40;99.90;;;;;;5051913;28;20039;-89
2023/01/20 08:51:58;;;;;;;68.57;31.17;;;1.50;99.90;;;;;;5053374;28;20029;-90
2023/01/20 08:54:24;;;;;;;73.40;30.67;;;1.50;99.90;;;;;;5053019;28;20047;-89
2023/01/20 08:56:55;;;;;;;70.28;31.70;;;1.50;99.90;;;;;;5053713;28;20041;-91
2023/01/20 08:59:21;;;;;;;74.53;32.10;;;1.50;99.90;;;;;;5036418;28;20547;-91
2023/01/20 09:01:59;;;;;;;62.80;28.33;;;1.50;99.90;;;;;;5054416;28;20072;-91
2023/01/20 09:04:25;;;;;;;67.30;29.70;;;1.50;99.90;;;;;;5036685;28;20040;-90
2023/01/20 09:06:52;;;;;;;70.43;31.95;;;1.50;99.90;;;;;;5039796;28;20436;-91
2023/01/20 09:09:20;;;;;;;67.53;29.90;;;1.50;99.90;;;;;;5057280;28;20033;-91
2023/01/20 09:12:00;;;;;;;;;;;;;;;;;;;;;
2023/01/20 09:14:27;;;;;;;68.57;31.52;;;1.50;99.90;;;;;;5056951;28;20035;-91
2023/01/20 09:16:53;;;;;;;69.88;32.58;;;1.50;99.90;;;;;;5055225;28;20044;-91
2023/01/20 09:19:19;;;;;;;61.95;29.27;;;1.50;99.90;;;;;;5055795;28;20504;-92
2023/01/20 09:21:52;;;;;;;64.53;28.13;;;1.50;99.90;;;;;;5038882;28;20503;-90
2023/01/20 09:24:18;;;;;;;66.40;30.70;;;1.50;99.90;;;;;;5038338;28;20099;-91
2023/01/20 09:26:50;;;;;;;71.25;30.83;;;1.50;99.90;;;;;;5018213;28;20053;-93
2023/01/20 09:29:33;;;;;;;70.00;30.88;;;1.50;99.90;;;;;;5034706;28;20047;-91
2023/01/20 09:31:59;;;;;;;72.15;31.02;;;1.50;99.90;;;;;;5017976;28;20033;-92
2023/01/20 09:34:28;;;;;;;65.43;29.65;;;1.50;99.90;;;;;;5034988;28;20398;-91
2023/01/20 09:43:52;;;;;;;67.72;31.13;;;1.50;99.90;;;;;;5034792;28;20037;-92
2023/01/20 09:46:19;;;;;;;56.35;26.08;;;1.60;99.90;;;;;;5035829;28;20036;-91
2023/01/20 09:55:31;;;;;;;58.13;25.45;;;1.60;99.90;;;;;;5035618;28;20616;-91
2023/01/20 09:58:10;;;;;;;55.42;25.80;;;1.70;99.90;;;;;;4965292;28;20088;-91
2023/01/20 10:00:41;;;;;;;55.10;25.40;;;1.70;99.90;;;;;;5034712;28;20030;-92
2023/01/20 10:03:59;;;;;;;64.22;27.92;;;1.70;99.90;;;;;;5035516;28;20041;-91
2023/01/20 10:06:33;;;;;;;55.28;25.73;;;1.80;99.90;;;;;;4998607;28;20108;-91
2023/01/20 10:09:10;;;;;;;59.08;26.10;;;1.70;99.90;;;;;;5018295;28;20040;-91
2023/01/20 10:11:48;;;;;;;56.28;25.25;;;1.70;99.90;;;;;;5035121;28;20029;-90
2023/01/20 10:14:33;;;;;;;59.50;27.48;;;1.80;99.90;;;;;;5034708;28;20099;-90
2023/01/20 10:17:20;;;;;;;58.55;26.20;;;1.70;99.90;;;;;;5018348;28;20041;-91
2023/01/20 10:20:13;;;;;;;56.72;26.25;;;1.80;99.90;;;;;;5034771;28;20033;-91
2023/01/20 10:22:42;;;;;;;57.70;26.15;;;1.80;99.90;;;;;;5034959;28;20061;-92
2023/01/20 10:25:29;;;;;;;61.75;27.92;;;1.80;99.90;;;;;;5036350;28;20037;-91
2023/01/20 10:28:10;;;;;;;58.65;27.52;;;1.80;99.90;;;;;;5045962;28;20051;-91
2023/01/20 10:30:37;;;;;;;57.67;26.60;;;1.80;99.90;;;;;;5059976;28;20033;-92
2023/01/20 10:33:12;;;;;;;57.45;25.83;;;1.80;99.90;;;;;;5053987;28;20044;-91
2023/01/20 10:35:43;;;;;;;60.55;28.67;;;1.90;99.90;;;;;;5053775;28;20063;-92
2023/01/20 10:38:37;;;;;;;58.97;28.92;;;1.90;99.90;;;;;;5055193;28;20064;-92
2023/01/20 10:41:17;;;;;;;59.85;28.20;;;1.90;99.90;;;;;;5035539;28;20044;-91
2023/01/20 10:43:44;;;;;;;60.53;28.00;;;1.90;99.90;;;;;;5053471;28;20056;-91
2023/01/20 10:47:02;;;;;;;54.72;26.60;;;1.90;99.90;;;;;;5054589;28;20546;-92
2023/01/20 10:49:51;;;;;;;59.15;27.67;;;1.90;99.90;;;;;;4977954;28;20140;-91
2023/01/20 10:52:49;;;;;;;61.40;28.33;;;1.90;99.90;;;;;;5055005;28;20025;-91
2023/01/20 10:55:49;;;;;;;54.42;25.17;;;1.90;99.90;;;;;;5054181;28;20037;-91
2023/01/20 10:58:37;;;;;;;57.33;26.63;;;2.00;99.90;;;;;;5053663;28;20131;-91
2023/01/20 11:01:07;;;;;;;57.13;29.10;;;2.00;99.90;;;;;;5037200;28;20045;-91
2023/01/20 11:03:58;;;;;;;58.17;28.77;;;2.00;99.90;;;;;;5059113;28;20036;-92
2023/01/20 11:06:26;;;;;;;52.38;25.25;;;2.00;99.90;;;;;;5041604;28;20040;-90
2023/01/20 11:08:56;;;;;;;50.15;26.13;;;2.10;99.90;;;;;;5053518;28;20029;-90
2023/01/20 11:11:49;;;;;;;50.88;25.13;;;2.10;99.90;;;;;;5053907;28;20035;-93
2023/01/20 11:14:15;;;;;;;53.58;27.40;;;2.00;99.90;;;;;;5053362;28;20132;-91
2023/01/20 11:17:08;;;;;;;;;;;;;;;;;;;;;
2023/01/20 11:19:55;;;;;;;;;;;2.10;99.90;;;;;;5054868;28;20029;-91
2023/01/20 11:22:39;;;;;;;47.95;24.63;;;2.10;99.90;;;;;;5036330;28;19905;-92
2023/01/20 11:25:40;;;;;;;48.20;24.05;;;2.10;99.90;;;;;;5017503;28;20073;-92
2023/01/20 11:28:57;;;;;;;38.72;20.75;;;2.30;99.90;;;;;;4969945;28;20138;-92
2023/01/20 11:31:36;;;;;;;44.38;22.45;;;2.30;99.90;;;;;;5013627;28;20042;-92
2023/01/20 11:34:42;;;;;;;42.95;23.38;;;2.30;99.90;;;;;;5014546;28;20040;-91
2023/01/20 11:37:08;;;;;;;44.13;21.92;;;2.40;99.90;;;;;;4995064;28;20114;-92
2023/01/20 11:39:48;;;;;;;47.17;25.33;;;2.40;99.90;;;;;;5013411;28;20138;-92
2023/01/20 11:42:23;;;;;;;45.70;22.80;;;2.40;99.90;;;;;;5021031;28;20037;-92
2023/01/20 11:47:42;;;;;;;43.20;23.90;;;2.50;99.90;;;;;;5005362;28;20088;-93
2023/01/20 11:50:38;;;;;;;42.42;23.45;;;2.50;99.90;;;;;;5002546;28;20038;-93
2023/01/20 11:53:44;;;;;;;38.70;22.23;;;2.50;99.90;;;;;;4987724;28;20033;-92
2023/01/20 11:56:28;;;;;;;46.17;25.23;;;2.40;99.90;;;;;;4993385;28;20120;-93
2023/01/20 11:59:48;;;;;;;46.03;25.00;;;2.50;99.90;;;;;;4976942;28;20109;-92
2023/01/20 12:02:37;;;;;;;41.08;23.00;;;2.40;99.90;;;;;;5013062;28;20133;-91
2023/01/20 12:05:27;;;;;;;38.97;22.20;;;2.40;99.90;;;;;;5012315;28;20037;-92
2023/01/20 12:08:10;;;;;;;39.65;22.52;;;2.40;99.90;;;;;;5012236;28;20076;-92
2023/01/20 12:10:40;;;;;;;;;;;2.40;99.90;;;;;;5011312;28;20034;-92
2023/01/20 12:13:31;;;;;;;37.95;21.58;;;2.40;99.90;;;;;;5014130;28;19960;-92
2023/01/20 12:16:08;;;;;;;44.40;25.13;;;2.40;99.90;;;;;;5012183;28;20034;-92
2023/01/20 12:18:57;;;;;;;37.50;22.70;;;2.40;99.90;;;;;;5012839;28;20034;-93
2023/01/20 12:21:28;;;;;;;38.75;22.90;;;2.40;99.90;;;;;;5012098;28;20041;-92
2023/01/20 12:24:17;;;;;;;37.08;21.88;;;2.40;99.90;;;;;;5013215;28;20125;-90
2023/01/20 12:26:43;;;;;;;33.90;19.88;;;2.40;99.90;;;;;;5000592;28;20790;-93
2023/01/20 12:29:37;;;;;;;33.90;19.63;;;2.40;99.90;;;;;;5011882;28;20117;-91
2023/01/20 12:32:33;;;;;;;;;;;;;;;;;;;;;
2023/01/20 12:35:15;;;;;;;32.10;19.10;;;2.50;99.90;;;;;;4996440;28;20054;-91
2023/01/20 12:40:21;;;;;;;36.03;21.05;;;2.40;99.90;;;;;;5064337;23;20117;-84
2023/01/20 12:43:10;;;;;;;34.05;21.58;;;2.40;99.90;;;;;;4972217;28;20520;-86
2023/01/20 12:45:54;;;;;;;34.60;20.60;;;2.40;99.90;;;;;;4974067;28;20043;-89
2023/01/20 12:48:43;;;;;;;31.88;20.17;;;2.30;99.90;;;;;;4974455;28;20480;-86
2023/01/20 12:51:46;;;;;;;31.58;19.80;;;2.30;99.90;;;;;;4975685;28;20522;-88
2023/01/20 12:54:31;;;;;;;31.75;19.70;;;2.40;99.90;;;;;;4974209;28;20057;-85
2023/01/20 12:57:27;;;;;;;31.52;19.88;;;2.40;99.90;;;;;;4973757;28;20041;-86
2023/01/20 13:00:25;;;;;;;29.92;18.55;;;2.40;99.90;;;;;;4974115;28;20038;-85
2023/01/20 13:03:07;;;;;;;31.83;20.27;;;2.40;99.90;;;;;;4974811;28;20035;-86
2023/01/20 13:06:20;;;;;;;27.30;17.73;;;2.50;99.90;;;;;;4973160;28;20039;-86
2023/01/20 13:08:54;;;;;;;32.47;19.63;;;2.50;99.90;;;;;;4951689;28;20074;-86
2023/01/20 13:11:50;;;;;;;33.80;20.77;;;2.50;99.90;;;;;;4970522;28;20981;-86
2023/01/20 13:14:32;;;;;;;32.47;21.40;;;2.50;99.90;;;;;;4974066;28;20051;-85
2023/01/20 13:17:24;;;;;;;32.05;20.95;;;2.50;99.90;;;;;;4970775;28;20038;-87
2023/01/20 13:19:52;;;;;;;31.20;20.95;;;2.50;99.90;;;;;;4970846;28;20074;-84
2023/01/20 13:22:20;;;;;;;32.30;20.05;;;2.50;99.90;;;;;;4974269;28;20027;-84
2023/01/20 13:24:49;;;;;;;30.08;19.08;;;2.50;99.90;;;;;;4973136;28;20034;-86
2023/01/20 13:27:25;;;;;;;27.85;18.35;;;2.50;99.90;;;;;;4971511;28;20369;-84
2023/01/20 13:29:54;;;;;;;30.67;19.92;;;2.50;99.90;;;;;;4974438;28;20042;-85